sensor_id;sensor_type;location;lat;lon;timestamp;P1;durP1;ratioP1;P2;durP2;ratioP2
21305;SDS011;10812;51.838;5.838;2022-12-07T00:01:18;13.53;;;10.00;;
21305;SDS011;10812;51.838;5.838;2022-12-07T00:03:48;13.40;;;10.00;;
21305;SDS011;10812;51.838;5.838;2022-12-07T00:06:17;12.00;;;9.27;;
21305;SDS011;10812;51.838;5.838;2022-12-07T00:08:47;11.90;;;8.97;;
21305;SDS011;10812;51.838;5.838;2022-12-07T00:11:16;12.73;;;9.60;;
21305;SDS011;10812;51.838;5.838;2022-12-07T00:13:47;12.47;;;10.00;;
21305;SDS011;10812;51.838;5.838;2022-12-07T00:16:19;12.23;;;9.07;;
21305;SDS011;10812;51.838;5.838;2022-12-07T00:18:49;12.27;;;9.50;;
21305;SDS011;10812;51.838;5.838;2022-12-07T00:21:18;14.33;;;9.27;;
21305;SDS011;10812;51.838;5.838;2022-12-07T00:23:49;14.07;;;8.73;;
21305;SDS011;10812;51.838;5.838;2022-12-07T00:26:18;11.40;;;8.83;;
21305;SDS011;10812;51.838;5.838;2022-12-07T00:28:49;13.40;;;9.40;;
21305;SDS011;10812;51.838;5.838;2022-12-07T00:31:19;9.80;;;7.93;;
21305;SDS011;10812;51.838;5.838;2022-12-07T00:33:49;15.83;;;9.70;;
21305;SDS011;10812;51.838;5.838;2022-12-07T00:36:18;10.73;;;8.47;;
21305;SDS011;10812;51.838;5.838;2022-12-07T00:38:52;14.93;;;8.23;;
21305;SDS011;10812;51.838;5.838;2022-12-07T00:41:21;10.33;;;7.97;;
21305;SDS011;10812;51.838;5.838;2022-12-07T00:43:52;10.57;;;8.10;;
21305;SDS011;10812;51.838;5.838;2022-12-07T00:46:21;12.40;;;8.17;;
21305;SDS011;10812;51.838;5.838;2022-12-07T00:48:50;11.40;;;9.37;;
21305;SDS011;10812;51.838;5.838;2022-12-07T00:51:20;12.50;;;7.50;;
21305;SDS011;10812;51.838;5.838;2022-12-07T00:53:49;11.90;;;7.93;;
21305;SDS011;10812;51.838;5.838;2022-12-07T00:56:18;11.43;;;8.23;;
21305;SDS011;10812;51.838;5.838;2022-12-07T00:58:49;12.37;;;7.97;;
21305;SDS011;10812;51.838;5.838;2022-12-07T01:01:20;10.27;;;8.13;;
21305;SDS011;10812;51.838;5.838;2022-12-07T01:03:48;9.57;;;7.80;;
21305;SDS011;10812;51.838;5.838;2022-12-07T01:06:18;13.63;;;8.63;;
21305;SDS011;10812;51.838;5.838;2022-12-07T01:08:47;11.33;;;7.40;;
21305;SDS011;10812;51.838;5.838;2022-12-07T01:11:17;13.50;;;8.07;;
21305;SDS011;10812;51.838;5.838;2022-12-07T01:13:46;12.60;;;8.17;;
21305;SDS011;10812;51.838;5.838;2022-12-07T01:16:18;11.53;;;7.77;;
21305;SDS011;10812;51.838;5.838;2022-12-07T01:18:47;14.07;;;8.60;;
21305;SDS011;10812;51.838;5.838;2022-12-07T01:21:17;9.67;;;7.63;;
21305;SDS011;10812;51.838;5.838;2022-12-07T01:23:47;11.80;;;8.50;;
21305;SDS011;10812;51.838;5.838;2022-12-07T01:26:17;12.27;;;8.10;;
21305;SDS011;10812;51.838;5.838;2022-12-07T01:28:47;11.53;;;7.90;;
21305;SDS011;10812;51.838;5.838;2022-12-07T01:31:15;11.77;;;8.10;;
21305;SDS011;10812;51.838;5.838;2022-12-07T01:33:47;12.37;;;7.33;;
21305;SDS011;10812;51.838;5.838;2022-12-07T01:36:19;12.90;;;7.23;;
21305;SDS011;10812;51.838;5.838;2022-12-07T01:38:49;12.13;;;7.60;;
21305;SDS011;10812;51.838;5.838;2022-12-07T01:52:53;9.83;;;7.07;;
21305;SDS011;10812;51.838;5.838;2022-12-07T01:55:24;11.00;;;7.63;;
21305;SDS011;10812;51.838;5.838;2022-12-07T01:57:53;11.63;;;7.23;;
21305;SDS011;10812;51.838;5.838;2022-12-07T02:00:23;8.37;;;6.93;;
21305;SDS011;10812;51.838;5.838;2022-12-07T02:02:52;9.73;;;6.97;;
21305;SDS011;10812;51.838;5.838;2022-12-07T02:05:24;10.63;;;8.10;;
21305;SDS011;10812;51.838;5.838;2022-12-07T02:07:55;12.47;;;8.30;;
21305;SDS011;10812;51.838;5.838;2022-12-07T02:10:25;10.57;;;7.90;;
21305;SDS011;10812;51.838;5.838;2022-12-07T02:12:55;15.77;;;8.43;;
21305;SDS011;10812;51.838;5.838;2022-12-07T02:15:26;11.67;;;7.77;;
21305;SDS011;10812;51.838;5.838;2022-12-07T02:18:06;13.87;;;8.73;;
21305;SDS011;10812;51.838;5.838;2022-12-07T02:20:41;13.57;;;7.47;;
21305;SDS011;10812;51.838;5.838;2022-12-07T02:29:39;9.83;;;7.63;;
21305;SDS011;10812;51.838;5.838;2022-12-07T02:32:13;11.40;;;7.47;;
21305;SDS011;10812;51.838;5.838;2022-12-07T02:34:47;10.83;;;7.63;;
21305;SDS011;10812;51.838;5.838;2022-12-07T02:37:20;10.73;;;7.30;;
21305;SDS011;10812;51.838;5.838;2022-12-07T02:39:57;10.13;;;8.00;;
21305;SDS011;10812;51.838;5.838;2022-12-07T02:42:29;11.50;;;7.57;;
21305;SDS011;10812;51.838;5.838;2022-12-07T02:45:02;10.17;;;7.50;;
21305;SDS011;10812;51.838;5.838;2022-12-07T02:47:33;12.17;;;7.33;;
21305;SDS011;10812;51.838;5.838;2022-12-07T02:50:03;8.47;;;7.50;;
21305;SDS011;10812;51.838;5.838;2022-12-07T02:52:33;10.13;;;7.73;;
21305;SDS011;10812;51.838;5.838;2022-12-07T02:55:01;11.93;;;8.33;;
21305;SDS011;10812;51.838;5.838;2022-12-07T02:57:37;11.10;;;7.43;;
21305;SDS011;10812;51.838;5.838;2022-12-07T03:08:21;7.80;;;6.57;;
21305;SDS011;10812;51.838;5.838;2022-12-07T03:10:56;8.77;;;7.33;;
21305;SDS011;10812;51.838;5.838;2022-12-07T03:13:28;8.80;;;6.77;;
21305;SDS011;10812;51.838;5.838;2022-12-07T03:16:01;11.33;;;7.13;;
21305;SDS011;10812;51.838;5.838;2022-12-07T03:18:34;8.17;;;6.70;;
21305;SDS011;10812;51.838;5.838;2022-12-07T03:21:06;13.57;;;7.13;;
21305;SDS011;10812;51.838;5.838;2022-12-07T03:23:40;9.40;;;7.00;;
21305;SDS011;10812;51.838;5.838;2022-12-07T03:26:12;8.33;;;6.30;;
21305;SDS011;10812;51.838;5.838;2022-12-07T03:28:44;7.63;;;6.77;;
21305;SDS011;10812;51.838;5.838;2022-12-07T03:31:17;10.13;;;7.23;;
21305;SDS011;10812;51.838;5.838;2022-12-07T03:33:51;9.40;;;7.20;;
21305;SDS011;10812;51.838;5.838;2022-12-07T03:36:25;11.57;;;7.10;;
21305;SDS011;10812;51.838;5.838;2022-12-07T03:39:00;10.80;;;7.10;;
21305;SDS011;10812;51.838;5.838;2022-12-07T03:41:36;8.27;;;6.90;;
21305;SDS011;10812;51.838;5.838;2022-12-07T03:44:10;11.40;;;7.40;;
21305;SDS011;10812;51.838;5.838;2022-12-07T03:46:42;9.83;;;6.43;;
21305;SDS011;10812;51.838;5.838;2022-12-07T03:49:13;11.93;;;7.57;;
21305;SDS011;10812;51.838;5.838;2022-12-07T03:51:50;11.80;;;7.07;;
21305;SDS011;10812;51.838;5.838;2022-12-07T03:54:26;10.63;;;7.07;;
21305;SDS011;10812;51.838;5.838;2022-12-07T03:56:59;10.60;;;7.07;;
21305;SDS011;10812;51.838;5.838;2022-12-07T03:59:29;13.50;;;7.47;;
21305;SDS011;10812;51.838;5.838;2022-12-07T04:02:01;8.60;;;6.83;;
21305;SDS011;10812;51.838;5.838;2022-12-07T04:04:31;7.97;;;6.27;;
21305;SDS011;10812;51.838;5.838;2022-12-07T04:07:00;10.30;;;6.33;;
21305;SDS011;10812;51.838;5.838;2022-12-07T04:09:29;8.80;;;6.63;;
21305;SDS011;10812;51.838;5.838;2022-12-07T04:11:57;10.47;;;6.30;;
21305;SDS011;10812;51.838;5.838;2022-12-07T04:14:26;10.80;;;5.90;;
21305;SDS011;10812;51.838;5.838;2022-12-07T04:16:55;8.73;;;6.37;;
21305;SDS011;10812;51.838;5.838;2022-12-07T04:19:24;7.73;;;5.57;;
21305;SDS011;10812;51.838;5.838;2022-12-07T04:21:54;10.47;;;5.30;;
21305;SDS011;10812;51.838;5.838;2022-12-07T04:24:22;10.13;;;5.40;;
21305;SDS011;10812;51.838;5.838;2022-12-07T04:26:52;9.50;;;5.40;;
21305;SDS011;10812;51.838;5.838;2022-12-07T04:29:21;7.83;;;4.70;;
21305;SDS011;10812;51.838;5.838;2022-12-07T04:31:50;7.50;;;4.97;;
21305;SDS011;10812;51.838;5.838;2022-12-07T04:34:18;8.77;;;5.20;;
21305;SDS011;10812;51.838;5.838;2022-12-07T04:36:47;9.83;;;5.53;;
21305;SDS011;10812;51.838;5.838;2022-12-07T04:39:18;9.73;;;4.97;;
21305;SDS011;10812;51.838;5.838;2022-12-07T04:41:47;6.30;;;5.07;;
21305;SDS011;10812;51.838;5.838;2022-12-07T04:44:18;9.93;;;4.73;;
21305;SDS011;10812;51.838;5.838;2022-12-07T04:46:46;10.53;;;5.30;;
21305;SDS011;10812;51.838;5.838;2022-12-07T04:49:15;6.67;;;4.87;;
21305;SDS011;10812;51.838;5.838;2022-12-07T04:51:44;9.83;;;4.77;;
21305;SDS011;10812;51.838;5.838;2022-12-07T04:54:13;8.70;;;5.07;;
21305;SDS011;10812;51.838;5.838;2022-12-07T04:56:42;6.53;;;4.53;;
21305;SDS011;10812;51.838;5.838;2022-12-07T04:59:10;9.07;;;4.53;;
21305;SDS011;10812;51.838;5.838;2022-12-07T05:01:41;11.00;;;5.30;;
21305;SDS011;10812;51.838;5.838;2022-12-07T05:04:09;7.13;;;4.50;;
21305;SDS011;10812;51.838;5.838;2022-12-07T05:06:37;6.27;;;5.00;;
21305;SDS011;10812;51.838;5.838;2022-12-07T05:09:06;10.10;;;4.87;;
21305;SDS011;10812;51.838;5.838;2022-12-07T05:11:34;7.00;;;4.73;;
21305;SDS011;10812;51.838;5.838;2022-12-07T05:14:06;7.27;;;4.33;;
21305;SDS011;10812;51.838;5.838;2022-12-07T05:16:41;6.37;;;4.40;;
21305;SDS011;10812;51.838;5.838;2022-12-07T05:19:10;6.47;;;4.07;;
21305;SDS011;10812;51.838;5.838;2022-12-07T05:21:39;6.17;;;3.80;;
21305;SDS011;10812;51.838;5.838;2022-12-07T05:24:08;6.80;;;4.27;;
21305;SDS011;10812;51.838;5.838;2022-12-07T05:26:39;7.40;;;4.20;;
21305;SDS011;10812;51.838;5.838;2022-12-07T05:29:07;5.43;;;3.50;;
21305;SDS011;10812;51.838;5.838;2022-12-07T05:31:38;4.90;;;3.80;;
21305;SDS011;10812;51.838;5.838;2022-12-07T05:34:08;6.80;;;4.07;;
21305;SDS011;10812;51.838;5.838;2022-12-07T05:36:36;6.97;;;3.73;;
21305;SDS011;10812;51.838;5.838;2022-12-07T05:39:04;5.93;;;3.70;;
21305;SDS011;10812;51.838;5.838;2022-12-07T05:41:33;5.00;;;3.60;;
21305;SDS011;10812;51.838;5.838;2022-12-07T05:44:19;8.37;;;4.17;;
21305;SDS011;10812;51.838;5.838;2022-12-07T05:46:47;5.00;;;3.60;;
21305;SDS011;10812;51.838;5.838;2022-12-07T05:49:16;8.57;;;3.23;;
21305;SDS011;10812;51.838;5.838;2022-12-07T05:51:44;5.10;;;3.20;;
21305;SDS011;10812;51.838;5.838;2022-12-07T05:54:12;8.03;;;3.53;;
21305;SDS011;10812;51.838;5.838;2022-12-07T05:56:40;5.77;;;3.00;;
21305;SDS011;10812;51.838;5.838;2022-12-07T05:59:09;8.23;;;4.03;;
21305;SDS011;10812;51.838;5.838;2022-12-07T06:01:54;12.97;;;3.30;;
21305;SDS011;10812;51.838;5.838;2022-12-07T06:04:26;6.07;;;3.57;;
21305;SDS011;10812;51.838;5.838;2022-12-07T06:06:56;5.53;;;3.20;;
21305;SDS011;10812;51.838;5.838;2022-12-07T06:09:24;6.43;;;3.20;;
21305;SDS011;10812;51.838;5.838;2022-12-07T06:11:54;8.97;;;3.67;;
21305;SDS011;10812;51.838;5.838;2022-12-07T06:14:39;6.23;;;3.50;;
21305;SDS011;10812;51.838;5.838;2022-12-07T06:17:07;5.97;;;2.93;;
21305;SDS011;10812;51.838;5.838;2022-12-07T06:19:37;4.43;;;2.70;;
21305;SDS011;10812;51.838;5.838;2022-12-07T06:22:05;7.30;;;3.60;;
21305;SDS011;10812;51.838;5.838;2022-12-07T06:24:35;8.37;;;2.77;;
21305;SDS011;10812;51.838;5.838;2022-12-07T06:27:03;7.53;;;2.93;;
21305;SDS011;10812;51.838;5.838;2022-12-07T06:29:32;5.47;;;2.83;;
21305;SDS011;10812;51.838;5.838;2022-12-07T06:32:00;5.07;;;3.40;;
21305;SDS011;10812;51.838;5.838;2022-12-07T06:45:19;5.87;;;2.70;;
21305;SDS011;10812;51.838;5.838;2022-12-07T06:47:47;6.00;;;2.90;;
21305;SDS011;10812;51.838;5.838;2022-12-07T06:50:16;4.30;;;2.53;;
21305;SDS011;10812;51.838;5.838;2022-12-07T06:52:44;6.13;;;2.80;;
21305;SDS011;10812;51.838;5.838;2022-12-07T06:55:12;22.17;;;11.93;;
21305;SDS011;10812;51.838;5.838;2022-12-07T06:57:40;5.37;;;3.37;;
21305;SDS011;10812;51.838;5.838;2022-12-07T07:00:09;3.40;;;2.60;;
21305;SDS011;10812;51.838;5.838;2022-12-07T07:02:48;7.80;;;3.40;;
21305;SDS011;10812;51.838;5.838;2022-12-07T07:05:16;7.73;;;3.90;;
21305;SDS011;10812;51.838;5.838;2022-12-07T07:07:44;8.90;;;2.83;;
21305;SDS011;10812;51.838;5.838;2022-12-07T07:10:32;4.60;;;2.73;;
21305;SDS011;10812;51.838;5.838;2022-12-07T07:13:01;8.73;;;3.17;;
21305;SDS011;10812;51.838;5.838;2022-12-07T07:15:29;5.40;;;2.50;;
21305;SDS011;10812;51.838;5.838;2022-12-07T07:17:59;7.40;;;2.93;;
21305;SDS011;10812;51.838;5.838;2022-12-07T07:20:33;8.10;;;3.33;;
21305;SDS011;10812;51.838;5.838;2022-12-07T07:23:01;10.27;;;2.80;;
21305;SDS011;10812;51.838;5.838;2022-12-07T07:25:30;5.57;;;3.07;;
21305;SDS011;10812;51.838;5.838;2022-12-07T07:27:59;5.17;;;2.37;;
21305;SDS011;10812;51.838;5.838;2022-12-07T07:30:27;5.27;;;2.40;;
21305;SDS011;10812;51.838;5.838;2022-12-07T07:32:56;9.83;;;2.83;;
21305;SDS011;10812;51.838;5.838;2022-12-07T07:35:26;4.27;;;2.27;;
21305;SDS011;10812;51.838;5.838;2022-12-07T07:37:54;7.93;;;2.23;;
21305;SDS011;10812;51.838;5.838;2022-12-07T07:40:23;7.10;;;3.00;;
21305;SDS011;10812;51.838;5.838;2022-12-07T07:42:52;4.07;;;2.27;;
21305;SDS011;10812;51.838;5.838;2022-12-07T07:45:21;5.87;;;2.77;;
21305;SDS011;10812;51.838;5.838;2022-12-07T07:47:50;7.07;;;2.80;;
21305;SDS011;10812;51.838;5.838;2022-12-07T07:50:19;7.43;;;2.50;;
21305;SDS011;10812;51.838;5.838;2022-12-07T07:52:49;6.03;;;2.87;;
21305;SDS011;10812;51.838;5.838;2022-12-07T07:55:17;5.00;;;2.20;;
21305;SDS011;10812;51.838;5.838;2022-12-07T07:57:45;8.73;;;3.00;;
21305;SDS011;10812;51.838;5.838;2022-12-07T08:00:20;6.57;;;2.63;;
21305;SDS011;10812;51.838;5.838;2022-12-07T08:02:48;4.73;;;1.90;;
21305;SDS011;10812;51.838;5.838;2022-12-07T08:05:17;6.83;;;2.67;;
21305;SDS011;10812;51.838;5.838;2022-12-07T08:07:45;5.13;;;2.17;;
21305;SDS011;10812;51.838;5.838;2022-12-07T08:10:14;7.27;;;2.40;;
21305;SDS011;10812;51.838;5.838;2022-12-07T08:12:43;6.40;;;2.67;;
21305;SDS011;10812;51.838;5.838;2022-12-07T08:15:28;6.50;;;2.53;;
21305;SDS011;10812;51.838;5.838;2022-12-07T08:17:58;6.67;;;2.73;;
21305;SDS011;10812;51.838;5.838;2022-12-07T08:20:26;4.07;;;2.47;;
21305;SDS011;10812;51.838;5.838;2022-12-07T08:22:56;8.13;;;2.90;;
21305;SDS011;10812;51.838;5.838;2022-12-07T08:25:26;6.40;;;2.33;;
21305;SDS011;10812;51.838;5.838;2022-12-07T08:27:54;7.20;;;2.47;;
21305;SDS011;10812;51.838;5.838;2022-12-07T08:30:22;6.33;;;2.73;;
21305;SDS011;10812;51.838;5.838;2022-12-07T08:32:53;6.73;;;3.33;;
21305;SDS011;10812;51.838;5.838;2022-12-07T08:35:21;7.57;;;2.20;;
21305;SDS011;10812;51.838;5.838;2022-12-07T08:37:49;4.57;;;1.73;;
21305;SDS011;10812;51.838;5.838;2022-12-07T08:40:18;2.93;;;1.60;;
21305;SDS011;10812;51.838;5.838;2022-12-07T08:42:51;6.37;;;2.13;;
21305;SDS011;10812;51.838;5.838;2022-12-07T08:45:20;4.30;;;2.07;;
21305;SDS011;10812;51.838;5.838;2022-12-07T08:47:53;8.10;;;1.90;;
21305;SDS011;10812;51.838;5.838;2022-12-07T08:50:27;6.53;;;2.40;;
21305;SDS011;10812;51.838;5.838;2022-12-07T08:52:56;5.33;;;1.90;;
21305;SDS011;10812;51.838;5.838;2022-12-07T08:55:26;10.13;;;2.27;;
21305;SDS011;10812;51.838;5.838;2022-12-07T08:57:58;3.33;;;1.57;;
21305;SDS011;10812;51.838;5.838;2022-12-07T09:00:27;3.60;;;2.00;;
21305;SDS011;10812;51.838;5.838;2022-12-07T09:02:55;6.30;;;2.47;;
21305;SDS011;10812;51.838;5.838;2022-12-07T09:05:23;4.83;;;1.93;;
21305;SDS011;10812;51.838;5.838;2022-12-07T09:07:52;3.27;;;1.70;;
21305;SDS011;10812;51.838;5.838;2022-12-07T09:10:24;7.60;;;1.93;;
21305;SDS011;10812;51.838;5.838;2022-12-07T09:12:53;6.13;;;1.67;;
21305;SDS011;10812;51.838;5.838;2022-12-07T09:15:22;4.00;;;1.87;;
21305;SDS011;10812;51.838;5.838;2022-12-07T09:17:51;8.80;;;2.47;;
21305;SDS011;10812;51.838;5.838;2022-12-07T09:20:19;4.83;;;2.83;;
21305;SDS011;10812;51.838;5.838;2022-12-07T09:22:53;6.17;;;1.80;;
21305;SDS011;10812;51.838;5.838;2022-12-07T09:25:21;5.20;;;1.90;;
21305;SDS011;10812;51.838;5.838;2022-12-07T09:27:54;3.40;;;1.73;;
21305;SDS011;10812;51.838;5.838;2022-12-07T09:30:25;9.23;;;2.23;;
21305;SDS011;10812;51.838;5.838;2022-12-07T09:32:54;6.20;;;1.80;;
21305;SDS011;10812;51.838;5.838;2022-12-07T09:35:23;4.60;;;1.57;;
21305;SDS011;10812;51.838;5.838;2022-12-07T09:37:52;4.53;;;1.57;;
21305;SDS011;10812;51.838;5.838;2022-12-07T09:40:21;3.70;;;1.70;;
21305;SDS011;10812;51.838;5.838;2022-12-07T09:42:51;4.07;;;1.70;;
21305;SDS011;10812;51.838;5.838;2022-12-07T09:45:22;5.17;;;1.80;;
21305;SDS011;10812;51.838;5.838;2022-12-07T09:47:53;6.77;;;1.90;;
21305;SDS011;10812;51.838;5.838;2022-12-07T09:50:23;5.27;;;1.60;;
21305;SDS011;10812;51.838;5.838;2022-12-07T09:52:53;6.60;;;1.87;;
21305;SDS011;10812;51.838;5.838;2022-12-07T09:55:30;5.47;;;1.43;;
21305;SDS011;10812;51.838;5.838;2022-12-07T09:57:59;4.83;;;2.10;;
21305;SDS011;10812;51.838;5.838;2022-12-07T10:00:27;3.13;;;1.70;;
21305;SDS011;10812;51.838;5.838;2022-12-07T10:02:58;4.90;;;2.00;;
21305;SDS011;10812;51.838;5.838;2022-12-07T10:05:28;4.33;;;1.87;;
21305;SDS011;10812;51.838;5.838;2022-12-07T10:07:58;7.73;;;2.57;;
21305;SDS011;10812;51.838;5.838;2022-12-07T10:10:28;7.93;;;1.83;;
21305;SDS011;10812;51.838;5.838;2022-12-07T10:13:04;5.33;;;1.50;;
21305;SDS011;10812;51.838;5.838;2022-12-07T10:15:41;5.53;;;1.70;;
21305;SDS011;10812;51.838;5.838;2022-12-07T10:18:19;7.00;;;1.50;;
21305;SDS011;10812;51.838;5.838;2022-12-07T10:21:04;3.17;;;1.40;;
21305;SDS011;10812;51.838;5.838;2022-12-07T10:23:38;2.67;;;1.37;;
21305;SDS011;10812;51.838;5.838;2022-12-07T10:26:20;3.93;;;1.73;;
21305;SDS011;10812;51.838;5.838;2022-12-07T10:28:54;3.50;;;1.30;;
21305;SDS011;10812;51.838;5.838;2022-12-07T10:31:25;3.70;;;1.50;;
21305;SDS011;10812;51.838;5.838;2022-12-07T10:33:56;3.20;;;1.30;;
21305;SDS011;10812;51.838;5.838;2022-12-07T10:36:26;2.80;;;1.23;;
21305;SDS011;10812;51.838;5.838;2022-12-07T10:39:02;3.33;;;1.30;;
21305;SDS011;10812;51.838;5.838;2022-12-07T10:41:43;3.33;;;1.40;;
21305;SDS011;10812;51.838;5.838;2022-12-07T10:44:21;4.97;;;1.20;;
21305;SDS011;10812;51.838;5.838;2022-12-07T10:46:53;7.40;;;1.70;;
21305;SDS011;10812;51.838;5.838;2022-12-07T11:05:09;5.77;;;1.60;;
21305;SDS011;10812;51.838;5.838;2022-12-07T11:07:47;6.13;;;1.50;;
21305;SDS011;10812;51.838;5.838;2022-12-07T11:10:23;3.33;;;1.60;;
21305;SDS011;10812;51.838;5.838;2022-12-07T11:12:59;3.73;;;1.40;;
21305;SDS011;10812;51.838;5.838;2022-12-07T11:18:45;2.10;;;0.90;;
21305;SDS011;10812;51.838;5.838;2022-12-07T11:21:26;4.97;;;1.13;;
21305;SDS011;10812;51.838;5.838;2022-12-07T11:24:01;4.73;;;1.30;;
21305;SDS011;10812;51.838;5.838;2022-12-07T11:26:35;3.83;;;0.97;;
21305;SDS011;10812;51.838;5.838;2022-12-07T11:29:20;3.67;;;1.00;;
21305;SDS011;10812;51.838;5.838;2022-12-07T11:32:04;1.60;;;1.00;;
21305;SDS011;10812;51.838;5.838;2022-12-07T11:34:47;5.80;;;1.87;;
21305;SDS011;10812;51.838;5.838;2022-12-07T11:37:30;4.40;;;1.67;;
21305;SDS011;10812;51.838;5.838;2022-12-07T11:40:05;4.47;;;1.17;;
21305;SDS011;10812;51.838;5.838;2022-12-07T11:42:45;2.73;;;0.87;;
21305;SDS011;10812;51.838;5.838;2022-12-07T11:45:19;4.00;;;1.37;;
21305;SDS011;10812;51.838;5.838;2022-12-07T11:47:51;2.67;;;1.27;;
21305;SDS011;10812;51.838;5.838;2022-12-07T11:50:26;5.13;;;1.20;;
21305;SDS011;10812;51.838;5.838;2022-12-07T11:53:01;4.77;;;1.80;;
21305;SDS011;10812;51.838;5.838;2022-12-07T11:55:41;4.63;;;1.37;;
21305;SDS011;10812;51.838;5.838;2022-12-07T11:58:20;4.60;;;1.67;;
21305;SDS011;10812;51.838;5.838;2022-12-07T12:01:04;7.00;;;2.40;;
21305;SDS011;10812;51.838;5.838;2022-12-07T12:03:42;3.70;;;1.70;;
21305;SDS011;10812;51.838;5.838;2022-12-07T12:06:18;11.27;;;2.90;;
21305;SDS011;10812;51.838;5.838;2022-12-07T12:08:50;4.60;;;1.50;;
21305;SDS011;10812;51.838;5.838;2022-12-07T12:11:52;2.10;;;1.30;;
21305;SDS011;10812;51.838;5.838;2022-12-07T12:14:57;2.53;;;1.23;;
21305;SDS011;10812;51.838;5.838;2022-12-07T12:20:35;3.13;;;1.70;;
21305;SDS011;10812;51.838;5.838;2022-12-07T12:23:10;3.03;;;1.17;;
21305;SDS011;10812;51.838;5.838;2022-12-07T12:25:45;2.63;;;1.63;;
21305;SDS011;10812;51.838;5.838;2022-12-07T12:28:20;2.40;;;1.43;;
21305;SDS011;10812;51.838;5.838;2022-12-07T12:31:04;8.63;;;1.20;;
21305;SDS011;10812;51.838;5.838;2022-12-07T12:33:42;3.77;;;1.10;;
21305;SDS011;10812;51.838;5.838;2022-12-07T12:36:19;3.87;;;1.40;;
21305;SDS011;10812;51.838;5.838;2022-12-07T12:38:50;3.97;;;1.60;;
21305;SDS011;10812;51.838;5.838;2022-12-07T12:41:57;5.50;;;1.60;;
21305;SDS011;10812;51.838;5.838;2022-12-07T12:47:53;3.47;;;1.57;;
21305;SDS011;10812;51.838;5.838;2022-12-07T12:50:24;3.30;;;1.37;;
21305;SDS011;10812;51.838;5.838;2022-12-07T12:53:03;3.33;;;1.50;;
21305;SDS011;10812;51.838;5.838;2022-12-07T12:55:52;3.70;;;1.47;;
21305;SDS011;10812;51.838;5.838;2022-12-07T12:58:45;4.33;;;1.43;;
21305;SDS011;10812;51.838;5.838;2022-12-07T13:01:36;4.73;;;1.50;;
21305;SDS011;10812;51.838;5.838;2022-12-07T13:04:14;6.33;;;1.63;;
21305;SDS011;10812;51.838;5.838;2022-12-07T13:06:48;2.90;;;1.47;;
21305;SDS011;10812;51.838;5.838;2022-12-07T13:09:18;3.53;;;1.37;;
21305;SDS011;10812;51.838;5.838;2022-12-07T13:11:49;3.07;;;1.30;;
21305;SDS011;10812;51.838;5.838;2022-12-07T13:14:43;4.10;;;1.67;;
21305;SDS011;10812;51.838;5.838;2022-12-07T13:20:51;5.10;;;0.80;;
21305;SDS011;10812;51.838;5.838;2022-12-07T13:23:30;1.33;;;0.73;;
21305;SDS011;10812;51.838;5.838;2022-12-07T13:26:13;3.37;;;0.93;;
21305;SDS011;10812;51.838;5.838;2022-12-07T13:28:45;5.60;;;1.40;;
21305;SDS011;10812;51.838;5.838;2022-12-07T13:31:29;3.23;;;0.90;;
21305;SDS011;10812;51.838;5.838;2022-12-07T13:34:00;3.73;;;0.90;;
21305;SDS011;10812;51.838;5.838;2022-12-07T13:36:30;2.40;;;0.77;;
21305;SDS011;10812;51.838;5.838;2022-12-07T13:39:10;5.13;;;1.10;;
21305;SDS011;10812;51.838;5.838;2022-12-07T13:41:48;3.77;;;1.00;;
21305;SDS011;10812;51.838;5.838;2022-12-07T13:44:18;6.37;;;2.23;;
21305;SDS011;10812;51.838;5.838;2022-12-07T13:46:50;3.43;;;1.30;;
21305;SDS011;10812;51.838;5.838;2022-12-07T13:49:26;1.90;;;0.83;;
21305;SDS011;10812;51.838;5.838;2022-12-07T13:52:06;2.77;;;1.20;;
21305;SDS011;10812;51.838;5.838;2022-12-07T13:54:45;4.93;;;1.07;;
21305;SDS011;10812;51.838;5.838;2022-12-07T13:57:15;4.13;;;1.00;;
21305;SDS011;10812;51.838;5.838;2022-12-07T13:59:43;3.03;;;0.90;;
21305;SDS011;10812;51.838;5.838;2022-12-07T14:02:19;1.73;;;1.00;;
21305;SDS011;10812;51.838;5.838;2022-12-07T14:04:48;4.10;;;1.20;;
21305;SDS011;10812;51.838;5.838;2022-12-07T14:07:19;4.03;;;1.60;;
21305;SDS011;10812;51.838;5.838;2022-12-07T14:09:55;3.20;;;0.80;;
21305;SDS011;10812;51.838;5.838;2022-12-07T14:12:25;2.60;;;1.10;;
21305;SDS011;10812;51.838;5.838;2022-12-07T14:14:55;3.90;;;1.47;;
21305;SDS011;10812;51.838;5.838;2022-12-07T14:17:26;5.90;;;2.10;;
21305;SDS011;10812;51.838;5.838;2022-12-07T14:19:55;4.77;;;1.20;;
21305;SDS011;10812;51.838;5.838;2022-12-07T14:22:26;3.93;;;1.40;;
21305;SDS011;10812;51.838;5.838;2022-12-07T14:25:15;2.50;;;1.20;;
21305;SDS011;10812;51.838;5.838;2022-12-07T14:27:50;3.53;;;1.43;;
21305;SDS011;10812;51.838;5.838;2022-12-07T14:30:22;3.83;;;1.60;;
21305;SDS011;10812;51.838;5.838;2022-12-07T14:32:54;2.10;;;1.20;;
21305;SDS011;10812;51.838;5.838;2022-12-07T14:35:25;5.60;;;1.50;;
21305;SDS011;10812;51.838;5.838;2022-12-07T14:37:54;4.17;;;1.50;;
21305;SDS011;10812;51.838;5.838;2022-12-07T14:40:23;6.37;;;1.70;;
21305;SDS011;10812;51.838;5.838;2022-12-07T14:42:54;4.77;;;2.27;;
21305;SDS011;10812;51.838;5.838;2022-12-07T14:45:25;4.67;;;1.90;;
21305;SDS011;10812;51.838;5.838;2022-12-07T14:47:55;5.60;;;1.63;;
21305;SDS011;10812;51.838;5.838;2022-12-07T14:50:45;3.53;;;1.70;;
21305;SDS011;10812;51.838;5.838;2022-12-07T14:53:37;6.57;;;2.10;;
21305;SDS011;10812;51.838;5.838;2022-12-07T14:56:13;5.60;;;1.60;;
21305;SDS011;10812;51.838;5.838;2022-12-07T14:58:42;4.90;;;2.23;;
21305;SDS011;10812;51.838;5.838;2022-12-07T15:01:10;5.43;;;1.80;;
21305;SDS011;10812;51.838;5.838;2022-12-07T15:03:39;3.77;;;1.60;;
21305;SDS011;10812;51.838;5.838;2022-12-07T15:06:10;8.47;;;2.10;;
21305;SDS011;10812;51.838;5.838;2022-12-07T15:08:41;7.70;;;2.03;;
21305;SDS011;10812;51.838;5.838;2022-12-07T15:11:11;4.13;;;1.60;;
21305;SDS011;10812;51.838;5.838;2022-12-07T15:13:40;4.77;;;1.40;;
21305;SDS011;10812;51.838;5.838;2022-12-07T15:16:22;5.70;;;1.77;;
21305;SDS011;10812;51.838;5.838;2022-12-07T15:18:52;3.90;;;1.53;;
21305;SDS011;10812;51.838;5.838;2022-12-07T15:21:40;5.10;;;1.60;;
21305;SDS011;10812;51.838;5.838;2022-12-07T15:24:09;2.07;;;1.20;;
21305;SDS011;10812;51.838;5.838;2022-12-07T15:26:38;3.83;;;1.17;;
21305;SDS011;10812;51.838;5.838;2022-12-07T15:29:07;7.10;;;0.83;;
21305;SDS011;10812;51.838;5.838;2022-12-07T15:31:36;4.83;;;0.90;;
21305;SDS011;10812;51.838;5.838;2022-12-07T15:34:23;2.50;;;0.87;;
21305;SDS011;10812;51.838;5.838;2022-12-07T15:36:52;4.13;;;1.00;;
21305;SDS011;10812;51.838;5.838;2022-12-07T15:39:21;3.63;;;0.73;;
21305;SDS011;10812;51.838;5.838;2022-12-07T15:41:49;3.10;;;1.00;;
21305;SDS011;10812;51.838;5.838;2022-12-07T15:44:17;2.77;;;0.83;;
21305;SDS011;10812;51.838;5.838;2022-12-07T15:47:03;3.60;;;0.77;;
21305;SDS011;10812;51.838;5.838;2022-12-07T15:49:33;2.90;;;0.93;;
21305;SDS011;10812;51.838;5.838;2022-12-07T15:52:01;1.83;;;1.13;;
21305;SDS011;10812;51.838;5.838;2022-12-07T15:54:29;3.87;;;1.80;;
21305;SDS011;10812;51.838;5.838;2022-12-07T15:56:58;3.03;;;1.10;;
21305;SDS011;10812;51.838;5.838;2022-12-07T15:59:27;2.53;;;1.03;;
21305;SDS011;10812;51.838;5.838;2022-12-07T16:01:55;3.17;;;1.20;;
21305;SDS011;10812;51.838;5.838;2022-12-07T16:04:24;2.73;;;1.13;;
21305;SDS011;10812;51.838;5.838;2022-12-07T16:06:55;2.93;;;1.10;;
21305;SDS011;10812;51.838;5.838;2022-12-07T16:09:23;2.10;;;1.00;;
21305;SDS011;10812;51.838;5.838;2022-12-07T16:11:51;3.47;;;0.90;;
21305;SDS011;10812;51.838;5.838;2022-12-07T16:14:20;3.77;;;1.30;;
21305;SDS011;10812;51.838;5.838;2022-12-07T16:16:48;2.83;;;1.40;;
21305;SDS011;10812;51.838;5.838;2022-12-07T16:19:16;1.23;;;0.80;;
21305;SDS011;10812;51.838;5.838;2022-12-07T16:21:44;3.50;;;1.17;;